createdAt,value
2022-12-11T00:01:18.549Z,100336.97
2022-12-11T00:03:47.098Z,100325.53
2022-12-11T00:06:16.276Z,100336.28
2022-12-11T00:08:44.457Z,100329.59
2022-12-11T00:11:13.919Z,100326.34
2022-12-11T00:13:42.164Z,100329.97
2022-12-11T00:16:10.892Z,100329.47
2022-12-11T00:18:40.717Z,100330.97
2022-12-11T00:21:09.664Z,100324.47
2022-12-11T00:23:38.316Z,100321.09
2022-12-11T00:26:07.543Z,100329.47
2022-12-11T00:28:36.447Z,100330.19
2022-12-11T00:31:05.068Z,100334.53
2022-12-11T00:33:33.224Z,100337.91
2022-12-11T00:36:02.762Z,100332.28
2022-12-11T00:38:30.903Z,100332.41
2022-12-11T00:40:59.607Z,100336.59
2022-12-11T00:43:27.784Z,100339.19
2022-12-11T00:45:56.081Z,100335.56
2022-12-11T00:48:24.249Z,100333.34
2022-12-11T00:50:52.426Z,100337.22
2022-12-11T00:53:22.465Z,100333.59
2022-12-11T00:55:50.592Z,100334.16
2022-12-11T00:58:18.977Z,100332.28
2022-12-11T01:00:48.238Z,100329.47
2022-12-11T01:03:17.052Z,100322.72
2022-12-11T01:05:52.219Z,100324.25
2022-12-11T01:08:22.427Z,100324.00
2022-12-11T01:10:49.732Z,100319.66
2022-12-11T01:13:18.015Z,100322.59
2022-12-11T01:15:46.696Z,100327.72
2022-12-11T01:18:15.284Z,100329.50
2022-12-11T01:20:43.813Z,100332.19
2022-12-11T01:23:13.404Z,100318.88
2022-12-11T01:25:43.332Z,100329.84
2022-12-11T01:28:11.925Z,100328.69
2022-12-11T01:30:41.613Z,100329.50
2022-12-11T01:33:10.030Z,100317.47
2022-12-11T01:35:39.415Z,100325.88
2022-12-11T01:38:07.634Z,100323.91
2022-12-11T01:40:35.838Z,100318.06
2022-12-11T01:43:05.478Z,100320.28
2022-12-11T01:45:37.016Z,100307.53
2022-12-11T01:48:07.601Z,100307.75
2022-12-11T01:50:37.640Z,100301.47
2022-12-11T01:53:08.018Z,100301.00
2022-12-11T01:55:36.666Z,100305.28
2022-12-11T01:58:07.102Z,100306.38
2022-12-11T02:00:35.532Z,100305.06
2022-12-11T02:03:03.995Z,100308.22
2022-12-11T02:05:32.207Z,100317.00
2022-12-11T02:08:02.514Z,100312.56
2022-12-11T02:10:38.034Z,100317.34
2022-12-11T02:13:10.297Z,100310.44
2022-12-11T02:15:43.056Z,100313.38
2022-12-11T02:18:15.756Z,100309.16
2022-12-11T02:20:48.141Z,100303.91
2022-12-11T02:23:28.281Z,100301.91
2022-12-11T02:26:03.957Z,100302.03
2022-12-11T02:28:35.946Z,100305.66
2022-12-11T02:31:06.810Z,100306.00
2022-12-11T02:33:37.349Z,100306.22
2022-12-11T02:36:08.025Z,100308.22
2022-12-11T02:38:40.076Z,100303.19
2022-12-11T02:41:09.171Z,100299.69
2022-12-11T02:43:39.516Z,100305.75
2022-12-11T02:46:08.771Z,100298.53
2022-12-11T02:48:37.807Z,100305.66
2022-12-11T02:51:07.797Z,100297.47
2022-12-11T02:53:38.616Z,100297.22
2022-12-11T02:56:09.577Z,100291.16
2022-12-11T02:58:41.527Z,100286.25
2022-12-11T03:01:10.043Z,100284.84
2022-12-11T03:03:40.456Z,100279.59
2022-12-11T03:06:10.219Z,100279.16
2022-12-11T03:08:38.755Z,100279.97
2022-12-11T03:11:10.850Z,100275.25
2022-12-11T03:13:41.386Z,100275.72
2022-12-11T03:16:13.206Z,100281.09
2022-12-11T03:18:45.785Z,100281.94
2022-12-11T03:21:31.412Z,100279.81
2022-12-11T03:24:04.085Z,100281.69
2022-12-11T03:26:37.100Z,100280.06
2022-12-11T03:29:12.302Z,100288.81
2022-12-11T03:31:44.221Z,100287.31
2022-12-11T03:34:14.887Z,100287.06
2022-12-11T03:36:44.600Z,100286.13
2022-12-11T03:39:15.454Z,100287.88
2022-12-11T03:41:45.057Z,100286.34
2022-12-11T03:44:15.114Z,100290.22
2022-12-11T03:46:44.463Z,100289.16
2022-12-11T03:49:16.019Z,100290.56
2022-12-11T03:51:45.174Z,100279.69
2022-12-11T03:54:13.924Z,100288.81
2022-12-11T03:56:44.157Z,100288.09
2022-12-11T03:59:13.914Z,100279.94
2022-12-11T04:01:42.329Z,100274.09
2022-12-11T04:04:10.904Z,100282.16
2022-12-11T04:06:39.204Z,100279.00
2022-12-11T04:09:07.539Z,100289.97
2022-12-11T04:11:35.731Z,100280.28
2022-12-11T04:14:27.579Z,100288.47
2022-12-11T04:16:57.503Z,100292.22
2022-12-11T04:19:43.492Z,100285.78
2022-12-11T04:22:29.974Z,100279.94
2022-12-11T04:24:58.444Z,100274.56
2022-12-11T04:27:44.304Z,100278.19
2022-12-11T04:30:15.436Z,100272.22
2022-12-11T04:32:44.983Z,100268.94
2022-12-11T04:35:13.693Z,100269.31
2022-12-11T04:37:42.349Z,100268.38
2022-12-11T04:40:12.036Z,100268.00
2022-12-11T04:42:40.404Z,100272.00
2022-12-11T04:45:09.780Z,100263.69
2022-12-11T04:47:38.611Z,100265.69
2022-12-11T04:50:09.518Z,100274.31
2022-12-11T04:52:37.954Z,100268.94
2022-12-11T04:55:06.692Z,100264.75
2022-12-11T04:57:34.924Z,100259.72
2022-12-11T05:00:04.687Z,100265.44
2022-12-11T05:02:35.440Z,100263.44
2022-12-11T05:05:04.696Z,100273.50
2022-12-11T05:07:34.351Z,100265.09
2022-12-11T05:10:02.897Z,100254.34
2022-12-11T05:12:32.574Z,100261.25
2022-12-11T05:15:00.772Z,100266.06
2022-12-11T05:17:29.336Z,100270.84
2022-12-11T05:19:57.834Z,100265.56
2022-12-11T05:22:26.141Z,100265.56
2022-12-11T05:24:55.723Z,100264.44
2022-12-11T05:27:24.361Z,100265.56
2022-12-11T05:29:59.087Z,100255.03
2022-12-11T05:32:28.077Z,100252.03
2022-12-11T05:34:56.319Z,100251.00
2022-12-11T05:37:24.558Z,100261.81
2022-12-11T05:39:52.798Z,100251.81
2022-12-11T05:42:27.150Z,100246.16
2022-12-11T05:44:57.235Z,100251.31
2022-12-11T05:47:25.525Z,100253.69
2022-12-11T05:49:54.014Z,100258.47
2022-12-11T05:52:22.646Z,100254.50
2022-12-11T05:54:51.208Z,100251.47
2022-12-11T05:57:19.583Z,100257.66
2022-12-11T05:59:49.274Z,100245.94
2022-12-11T06:02:17.614Z,100247.25
2022-12-11T06:04:45.901Z,100259.59
2022-12-11T06:07:14.563Z,100255.88
2022-12-11T06:09:43.022Z,100245.63
2022-12-11T06:12:11.302Z,100248.19
2022-12-11T06:14:40.881Z,100245.63
2022-12-11T06:17:10.514Z,100236.94
2022-12-11T06:19:38.809Z,100236.81
2022-12-11T06:22:07.305Z,100235.88
2022-12-11T06:24:35.548Z,100233.88
2022-12-11T06:27:03.803Z,100236.22
2022-12-11T06:29:32.198Z,100226.03
2022-12-11T06:32:00.457Z,100233.53
2022-12-11T06:34:30.518Z,100234.13
2022-12-11T06:36:58.795Z,100246.50
2022-12-11T06:39:27.030Z,100239.72
2022-12-11T06:41:55.965Z,100231.44
2022-12-11T06:44:24.914Z,100248.13
2022-12-11T06:46:53.109Z,100245.00
2022-12-11T06:49:21.665Z,100237.97
2022-12-11T06:51:51.482Z,100239.16
2022-12-11T06:54:19.938Z,100242.06
2022-12-11T06:56:48.341Z,100242.06
2022-12-11T06:59:16.473Z,100243.34
2022-12-11T07:01:44.736Z,100247.56
2022-12-11T07:04:12.888Z,100238.44
2022-12-11T07:06:41.474Z,100241.13
2022-12-11T07:09:11.162Z,100249.28
2022-12-11T07:11:39.416Z,100248.59
2022-12-11T07:14:07.603Z,100248.97
2022-12-11T07:16:35.948Z,100252.94
2022-12-11T07:19:04.740Z,100253.50
2022-12-11T07:21:33.182Z,100259.94
2022-12-11T07:24:01.403Z,100249.44
2022-12-11T07:26:30.989Z,100253.03
2022-12-11T07:28:59.717Z,100243.22
2022-12-11T07:31:28.906Z,100236.81
2022-12-11T07:33:57.909Z,100240.91
2022-12-11T07:36:26.441Z,100244.41
2022-12-11T07:38:55.148Z,100241.94
2022-12-11T07:41:24.041Z,100253.03
2022-12-11T07:43:53.632Z,100250.34
2022-12-11T07:46:22.746Z,100251.41
2022-12-11T07:48:51.365Z,100249.06
2022-12-11T07:51:22.725Z,100253.03
2022-12-11T07:53:51.598Z,100253.03
2022-12-11T07:56:20.402Z,100257.38
2022-12-11T07:58:48.885Z,100248.34
2022-12-11T08:01:18.984Z,100252.69
2022-12-11T08:03:47.222Z,100256.75
2022-12-11T08:06:16.011Z,100254.56
2022-12-11T08:08:44.360Z,100252.91
2022-12-11T08:11:13.173Z,100254.31
2022-12-11T08:13:41.674Z,100253.69
2022-12-11T08:16:10.708Z,100251.34
2022-12-11T08:18:41.012Z,100246.41
2022-12-11T08:21:19.847Z,100252.72
2022-12-11T08:23:48.477Z,100246.63
2022-12-11T08:26:17.992Z,100252.00
2022-12-11T08:28:46.501Z,100263.59
2022-12-11T08:31:15.533Z,100263.25
2022-12-11T08:33:45.479Z,100258.63
2022-12-11T08:36:14.583Z,100260.16
2022-12-11T08:38:42.920Z,100256.03
2022-12-11T08:41:12.153Z,100256.03
2022-12-11T08:43:40.879Z,100257.06
2022-12-11T08:46:09.548Z,100255.91
2022-12-11T08:48:40.966Z,100253.09
2022-12-11T08:51:13.528Z,100250.16
2022-12-11T08:53:42.067Z,100252.59
2022-12-11T08:56:11.204Z,100249.91
2022-12-11T08:58:39.542Z,100250.38
2022-12-11T09:01:08.697Z,100252.69
2022-12-11T09:03:37.110Z,100258.72
2022-12-11T09:06:06.694Z,100250.72
2022-12-11T09:08:36.584Z,100253.84
2022-12-11T09:11:05.194Z,100245.97
2022-12-11T09:13:33.909Z,100252.00
2022-12-11T09:16:04.334Z,100250.81
2022-12-11T09:18:32.752Z,100252.13
2022-12-11T09:21:01.955Z,100253.75
2022-12-11T09:23:30.214Z,100253.06
2022-12-11T09:25:59.878Z,100247.69
2022-12-11T09:28:28.146Z,100248.38
2022-12-11T09:30:56.668Z,100242.00
2022-12-11T09:33:25.083Z,100244.75
2022-12-11T09:35:58.115Z,100244.50
2022-12-11T09:38:26.885Z,100255.66
2022-12-11T09:40:55.375Z,100252.28
2022-12-11T09:43:32.109Z,100255.66
2022-12-11T09:46:03.834Z,100253.69
2022-12-11T09:48:34.022Z,100249.59
2022-12-11T09:51:06.637Z,100246.53
2022-12-11T09:53:36.378Z,100246.06
2022-12-11T09:56:10.742Z,100243.47
2022-12-11T09:58:46.534Z,100244.66
2022-12-11T10:01:19.705Z,100239.63
2022-12-11T10:03:55.031Z,100250.84
2022-12-11T10:06:25.091Z,100245.38
2022-12-11T10:08:59.053Z,100243.84
2022-12-11T10:11:36.345Z,100240.00
2022-12-11T10:14:09.690Z,100238.56
2022-12-11T10:16:40.708Z,100241.44
2022-12-11T10:19:15.808Z,100237.94
2022-12-11T10:21:44.498Z,100240.28
2022-12-11T10:24:34.643Z,100239.56
2022-12-11T10:27:14.240Z,100231.72
2022-12-11T10:29:44.064Z,100230.44
2022-12-11T10:32:16.909Z,100223.25
2022-12-11T10:34:48.618Z,100234.56
2022-12-11T10:37:16.963Z,100228.22
2022-12-11T10:39:45.225Z,100222.66
2022-12-11T10:42:24.481Z,100216.97
2022-12-11T10:44:58.536Z,100226.09
2022-12-11T10:47:27.125Z,100214.91
2022-12-11T10:49:56.522Z,100210.13
2022-12-11T10:52:26.458Z,100217.38
2022-12-11T10:54:57.367Z,100213.53
2022-12-11T10:57:28.727Z,100208.09
2022-12-11T10:59:58.919Z,100217.22
2022-12-11T11:02:29.981Z,100216.72
2022-12-11T11:04:59.778Z,100209.19
2022-12-11T11:07:29.181Z,100212.41
2022-12-11T11:10:07.794Z,100208.56
2022-12-11T11:12:38.581Z,100202.22
2022-12-11T11:15:11.957Z,100207.31
2022-12-11T11:17:54.221Z,100204.81
2022-12-11T11:20:25.058Z,100207.50
2022-12-11T11:22:55.683Z,100207.25
2022-12-11T11:25:25.321Z,100204.63
2022-12-11T11:27:55.301Z,100203.19
2022-12-11T11:30:26.392Z,100202.69
2022-12-11T11:32:55.998Z,100198.63
2022-12-11T11:35:25.350Z,100195.25
2022-12-11T11:38:03.697Z,100196.31
2022-12-11T11:40:34.384Z,100192.75
2022-12-11T11:43:06.999Z,100192.09
2022-12-11T11:45:40.698Z,100192.16
2022-12-11T11:48:15.016Z,100195.34
2022-12-11T11:50:46.414Z,100196.16
2022-12-11T11:53:18.231Z,100197.06
2022-12-11T11:55:50.166Z,100191.59
2022-12-11T11:58:24.152Z,100188.75
2022-12-11T12:00:55.881Z,100187.03
2022-12-11T12:03:25.573Z,100183.09
2022-12-11T12:05:56.406Z,100184.63
2022-12-11T12:08:34.988Z,100182.75
2022-12-11T12:11:06.131Z,100181.47
2022-12-11T12:13:50.764Z,100178.38
2022-12-11T12:16:51.582Z,100172.53
2022-12-11T12:19:17.118Z,100168.78
2022-12-11T12:21:48.273Z,100176.03
2022-12-11T12:24:24.931Z,100181.47
2022-12-11T12:26:58.160Z,100177.09
2022-12-11T12:29:33.061Z,100182.28
2022-12-11T12:32:09.594Z,100176.91
2022-12-11T12:34:44.592Z,100168.59
2022-12-11T12:37:18.306Z,100161.91
2022-12-11T12:39:52.190Z,100167.75
2022-12-11T12:42:24.990Z,100167.38
2022-12-11T12:44:59.167Z,100158.81
2022-12-11T12:47:29.750Z,100168.78
2022-12-11T12:50:00.507Z,100163.53
2022-12-11T12:52:31.922Z,100169.25
2022-12-11T12:55:15.291Z,100164.03
2022-12-11T12:57:47.167Z,100165.66
2022-12-11T13:00:26.692Z,100166.22
2022-12-11T13:02:57.204Z,100164.34
2022-12-11T13:05:27.257Z,100165.41
2022-12-11T13:07:57.225Z,100159.63
2022-12-11T13:10:27.443Z,100162.38
2022-12-11T13:12:55.999Z,100159.53
2022-12-11T13:15:30.282Z,100163.88
2022-12-11T13:18:00.573Z,100162.72
2022-12-11T13:20:30.403Z,100157.75
2022-12-11T13:23:18.673Z,100148.88
2022-12-11T13:25:51.683Z,100150.06
2022-12-11T13:28:23.344Z,100152.69
2022-12-11T13:30:57.906Z,100151.13
2022-12-11T13:33:28.071Z,100150.06
2022-12-11T13:36:18.898Z,100152.28
2022-12-11T13:38:51.880Z,100158.16
2022-12-11T13:41:20.671Z,100160.69
2022-12-11T13:43:50.470Z,100154.25
2022-12-11T13:46:22.062Z,100159.16
2022-12-11T13:48:55.294Z,100158.16
2022-12-11T13:51:28.174Z,100157.09
2022-12-11T13:54:03.659Z,100154.41
2022-12-11T13:56:32.354Z,100162.88
2022-12-11T13:59:00.658Z,100150.81
2022-12-11T14:01:30.989Z,100160.59
2022-12-11T14:04:02.840Z,100165.50
2022-12-11T14:06:32.145Z,100159.28
2022-12-11T14:09:01.873Z,100155.47
2022-12-11T14:11:32.332Z,100159.47
2022-12-11T14:14:02.425Z,100156.44
2022-12-11T14:16:31.133Z,100162.16
2022-12-11T14:19:04.968Z,100163.22
2022-12-11T14:21:34.371Z,100158.88
2022-12-11T14:24:03.866Z,100160.44
2022-12-11T14:26:32.853Z,100168.09
2022-12-11T14:29:02.794Z,100164.53
2022-12-11T14:31:33.589Z,100166.66
2022-12-11T14:34:05.860Z,100168.78
2022-12-11T14:36:36.350Z,100165.84
2022-12-11T14:39:07.045Z,100166.06
2022-12-11T14:41:42.016Z,100168.78
2022-12-11T14:44:14.178Z,100174.06
2022-12-11T14:46:44.825Z,100179.19
2022-12-11T14:49:21.399Z,100177.22
2022-12-11T14:51:51.463Z,100176.91
2022-12-11T14:54:29.208Z,100181.72
2022-12-11T14:56:57.972Z,100172.00
2022-12-11T14:59:32.101Z,100179.34
2022-12-11T15:02:02.216Z,100185.31
2022-12-11T15:04:33.441Z,100187.44
2022-12-11T15:07:02.016Z,100181.84
2022-12-11T15:09:37.291Z,100191.06
2022-12-11T15:12:11.103Z,100186.84
2022-12-11T15:14:43.827Z,100193.88
2022-12-11T15:17:14.620Z,100193.97
2022-12-11T15:19:48.020Z,100198.09
2022-12-11T15:22:17.526Z,100186.19
2022-12-11T15:24:47.127Z,100184.53
2022-12-11T15:27:22.685Z,100194.16
2022-12-11T15:29:52.066Z,100192.53
2022-12-11T15:32:21.764Z,100193.69
2022-12-11T15:34:52.836Z,100199.06
2022-12-11T15:37:22.955Z,100191.91
2022-12-11T15:39:51.292Z,100190.91
2022-12-11T15:42:23.324Z,100194.66
2022-12-11T15:44:51.910Z,100194.25
2022-12-11T15:47:22.395Z,100195.88
2022-12-11T15:49:54.677Z,100189.78
2022-12-11T15:52:23.752Z,100194.19
2022-12-11T15:54:52.367Z,100195.16
2022-12-11T15:57:22.044Z,100197.19
2022-12-11T15:59:51.548Z,100196.94
2022-12-11T16:02:19.853Z,100190.50
2022-12-11T16:04:48.423Z,100202.66
2022-12-11T16:07:18.888Z,100197.84
2022-12-11T16:09:47.695Z,100201.38
2022-12-11T16:12:16.188Z,100199.97
2022-12-11T16:14:45.240Z,100199.25
2022-12-11T16:17:15.112Z,100203.25
2022-12-11T16:19:43.973Z,100201.84
2022-12-11T16:22:13.896Z,100198.75
2022-12-11T16:24:43.751Z,100198.44
2022-12-11T16:27:12.163Z,100193.78
2022-12-11T16:29:41.322Z,100198.56
2022-12-11T16:32:09.958Z,100193.28
2022-12-11T16:34:38.395Z,100189.78
2022-12-11T16:37:07.020Z,100190.03
2022-12-11T16:39:36.802Z,100189.44
2022-12-11T16:42:07.231Z,100187.72
2022-12-11T16:44:40.914Z,100185.84
2022-12-11T16:47:14.219Z,100188.78
2022-12-11T16:49:43.163Z,100191.56
2022-12-11T16:52:11.682Z,100184.72
2022-12-11T16:54:40.040Z,100187.47
2022-12-11T16:57:09.609Z,100190.59
2022-12-11T16:59:38.664Z,100184.88
2022-12-11T17:02:06.957Z,100185.69
2022-12-11T17:04:35.709Z,100184.06
2022-12-11T17:07:06.346Z,100182.41
2022-12-11T17:09:35.305Z,100184.28
2022-12-11T17:12:04.983Z,100183.22
2022-12-11T17:14:34.629Z,100184.22
2022-12-11T17:17:02.852Z,100196.31
2022-12-11T17:19:31.349Z,100191.16
2022-12-11T17:22:03.069Z,100187.41
2022-12-11T17:24:31.976Z,100190.41
2022-12-11T17:27:00.642Z,100189.28
2022-12-11T17:29:29.324Z,100189.28
2022-12-11T17:31:59.359Z,100190.47
2022-12-11T17:34:28.415Z,100185.91
2022-12-11T17:36:59.133Z,100190.34
2022-12-11T17:39:27.469Z,100191.41
2022-12-11T17:41:56.249Z,100201.34
2022-12-11T17:44:26.459Z,100194.34
2022-12-11T17:46:54.827Z,100189.78
2022-12-11T17:49:24.618Z,100188.38
2022-12-11T17:51:55.274Z,100191.88
2022-12-11T17:54:24.136Z,100188.78
2022-12-11T17:56:52.607Z,100187.97
2022-12-11T17:59:21.026Z,100196.53
2022-12-11T18:01:49.717Z,100193.03
2022-12-11T18:04:17.941Z,100192.22
2022-12-11T18:06:47.633Z,100193.59
2022-12-11T18:09:16.264Z,100181.13
2022-12-11T18:11:44.500Z,100196.56
2022-12-11T18:14:17.167Z,100186.47
2022-12-11T18:16:46.613Z,100188.81
2022-12-11T18:19:15.665Z,100193.97
2022-12-11T18:21:45.744Z,100198.63
2022-12-11T18:24:15.655Z,100188.50
2022-12-11T18:26:44.062Z,100191.44
2022-12-11T18:29:12.250Z,100191.78
2022-12-11T18:31:42.933Z,100195.69
2022-12-11T18:34:11.997Z,100198.03
2022-12-11T18:36:41.666Z,100189.63
2022-12-11T18:39:10.069Z,100188.34
2022-12-11T18:41:39.897Z,100184.41
2022-12-11T18:44:10.152Z,100196.34
2022-12-11T18:46:39.390Z,100198.69
2022-12-11T18:49:07.712Z,100186.88
2022-12-11T18:51:35.947Z,100199.75
2022-12-11T18:54:04.212Z,100200.50
2022-12-11T18:56:32.528Z,100202.38
2022-12-11T18:59:02.302Z,100194.38
2022-12-11T19:01:32.981Z,100195.84
2022-12-11T19:04:04.544Z,100194.56
2022-12-11T19:06:35.493Z,100203.34
2022-12-11T19:09:05.216Z,100204.09
2022-12-11T19:11:34.184Z,100199.84
2022-12-11T19:14:05.087Z,100200.91
2022-12-11T19:16:34.530Z,100201.97
2022-12-11T19:19:03.586Z,100201.06
2022-12-11T19:21:34.065Z,100199.00
2022-12-11T19:24:02.383Z,100196.31
2022-12-11T19:26:31.028Z,100202.69
2022-12-11T19:29:00.167Z,100205.28
2022-12-11T19:31:31.109Z,100200.41
2022-12-11T19:33:59.527Z,100200.41
2022-12-11T19:36:29.169Z,100196.84
2022-12-11T19:39:01.425Z,100195.69
2022-12-11T19:41:30.999Z,100210.53
2022-12-11T19:44:00.005Z,100199.59
2022-12-11T19:46:29.251Z,100210.22
2022-12-11T19:48:59.668Z,100207.59
2022-12-11T19:51:29.604Z,100213.22
2022-12-11T19:53:58.408Z,100211.34
2022-12-11T19:56:26.950Z,100206.94
2022-12-11T19:58:55.312Z,100210.63
2022-12-11T20:01:26.392Z,100208.59
2022-12-11T20:03:55.906Z,100208.72
2022-12-11T20:06:25.836Z,100206.28
2022-12-11T20:08:54.110Z,100196.66
2022-12-11T20:11:22.569Z,100208.09
2022-12-11T20:13:51.073Z,100201.53
2022-12-11T20:16:33.673Z,100207.75
2022-12-11T20:19:08.291Z,100196.66
2022-12-11T20:21:38.118Z,100198.63
2022-12-11T20:24:06.858Z,100206.06
2022-12-11T20:26:40.955Z,100206.94
2022-12-11T20:29:09.480Z,100198.63
2022-12-11T20:31:37.829Z,100201.63
2022-12-11T20:34:06.864Z,100206.13
2022-12-11T20:36:35.717Z,100212.97
2022-12-11T20:39:05.999Z,100208.72
2022-12-11T20:41:34.441Z,100205.63
2022-12-11T20:44:02.906Z,100214.09
2022-12-11T20:46:31.279Z,100202.53
2022-12-11T20:48:59.759Z,100207.94
2022-12-11T20:51:29.062Z,100199.44
2022-12-11T20:53:59.895Z,100190.59
2022-12-11T20:56:30.796Z,100193.91
2022-12-11T20:59:00.069Z,100190.47
2022-12-11T21:01:29.682Z,100196.97
2022-12-11T21:03:58.600Z,100185.56
2022-12-11T21:06:28.316Z,100193.56
2022-12-11T21:08:56.820Z,100197.31
2022-12-11T21:11:25.299Z,100196.75
2022-12-11T21:13:54.958Z,100197.06
2022-12-11T21:16:23.303Z,100194.06
2022-12-11T21:18:51.946Z,100194.19
2022-12-11T21:21:20.164Z,100194.06
2022-12-11T21:23:48.608Z,100201.88
2022-12-11T21:26:17.027Z,100199.19
2022-12-11T21:28:47.382Z,100201.31
2022-12-11T21:31:18.304Z,100198.94
2022-12-11T21:33:46.914Z,100198.03
2022-12-11T21:36:16.012Z,100199.19
2022-12-11T21:38:45.841Z,100202.75
2022-12-11T21:41:15.681Z,100195.50
2022-12-11T21:44:19.283Z,100198.56
2022-12-11T21:46:34.770Z,100193.69
2022-12-11T21:49:03.300Z,100201.38
2022-12-11T21:51:36.468Z,100195.97
2022-12-11T21:54:07.287Z,100193.19
2022-12-11T21:56:35.881Z,100198.72
2022-12-11T21:59:04.752Z,100195.31
2022-12-11T22:01:35.988Z,100208.19
2022-12-11T22:04:05.110Z,100203.22
2022-12-11T22:06:33.497Z,100208.03
2022-12-11T22:09:01.949Z,100211.34
2022-12-11T22:11:31.996Z,100210.13
2022-12-11T22:14:00.711Z,100207.59
2022-12-11T22:16:29.472Z,100209.34
2022-12-11T22:18:59.131Z,100214.16
2022-12-11T22:21:27.347Z,100216.84
2022-12-11T22:23:55.595Z,100213.09
2022-12-11T22:26:24.763Z,100215.56
2022-12-11T22:28:53.791Z,100217.09
2022-12-11T22:31:23.272Z,100223.63
2022-12-11T22:33:53.559Z,100219.06
2022-12-11T22:36:24.092Z,100221.84
2022-12-11T22:38:52.670Z,100224.06
2022-12-11T22:41:23.685Z,100216.00
2022-12-11T22:43:52.395Z,100223.97
2022-12-11T22:46:21.467Z,100227.38
2022-12-11T22:48:49.694Z,100226.06
2022-12-11T22:51:18.043Z,100222.66
2022-12-11T22:53:47.800Z,100219.63
2022-12-11T22:56:16.153Z,100218.44
2022-12-11T22:58:44.407Z,100217.81
2022-12-11T23:01:14.102Z,100218.94
2022-12-11T23:03:43.049Z,100213.56
2022-12-11T23:06:14.030Z,100211.44
2022-12-11T23:08:42.931Z,100210.31
2022-12-11T23:11:14.227Z,100216.84
2022-12-11T23:13:42.655Z,100223.03
2022-12-11T23:16:11.293Z,100226.63
2022-12-11T23:18:39.589Z,100229.81
2022-12-11T23:21:08.590Z,100228.41
2022-12-11T23:23:37.407Z,100224.56
2022-12-11T23:26:06.906Z,100233.63
2022-12-11T23:28:36.995Z,100237.03
2022-12-11T23:31:05.795Z,100234.59
2022-12-11T23:33:34.175Z,100233.09
2022-12-11T23:36:03.000Z,100238.22
2022-12-11T23:38:31.389Z,100239.72
2022-12-11T23:41:00.351Z,100236.69
2022-12-11T23:43:28.832Z,100237.66
2022-12-11T23:45:58.653Z,100229.47
2022-12-11T23:48:26.888Z,100234.72
2022-12-11T23:50:58.684Z,100229.25
2022-12-11T23:53:27.183Z,100229.72
2022-12-11T23:55:55.814Z,100220.81
2022-12-11T23:58:24.040Z,100229.81
